Terminal Aerodrome Forecast
Issued by NWS

Home | Current Version | Previous Version | Text Only | Print | Product List | Glossary On
Versions: 1 2 3 4 5 6 7 8 9 10 11 12 13 14 15 16 17 18 19 20 21 22 23 24
000
FTUS43 KDLH 221600 AAB
TAFHYR
TAF AMD
KHYR 221606Z 2216/2312 15008KT 2SM BR OVC005
      TEMPO 2216/2220 1 1/2SM -DZ BR OVC004
     FM222000 15007KT 2SM -DZ BR OVC006
     FM222300 12006KT 4SM -RASN BR OVC012
     FM230600 09006KT 3SM -SN BR OVC009=

USA.gov is the U.S. government's official web portal to all federal, state and local government web resources and services.